Time;durP1;ratioP1;P1;durP2;ratioP2;P2;SDS_P1;SDS_P2;PMS_P1;PMS_P2;Temp;Humidity;BMP_temperature;BMP_pressure;BME280_temperature;BME280_humidity;BME280_pressure;Samples;Min_cycle;Max_cycle;Signal;HPM_P1;HPM_P2
2021/06/08 00:01:58;;;;;;;12.10;8.05;;;14.00;99.90;;;;;;4970549;28;20180;-78
2021/06/08 00:04:23;;;;;;;11.90;7.70;;;14.10;99.90;;;;;;4986483;28;20200;-79
2021/06/08 00:06:50;;;;;;;13.32;8.45;;;14.20;99.90;;;;;;4968620;28;20193;-79
2021/06/08 00:09:16;;;;;;;11.18;7.15;;;14.10;99.90;;;;;;4986189;28;20205;-80
2021/06/08 00:11:42;;;;;;;12.50;8.38;;;14.10;99.90;;;;;;4988637;28;20185;-79
2021/06/08 00:14:08;;;;;;;13.45;8.68;;;14.10;99.90;;;;;;4988222;28;20285;-79
2021/06/08 00:16:34;;;;;;;12.68;8.02;;;14.00;99.90;;;;;;4987006;28;20235;-79
2021/06/08 00:18:59;;;;;;;12.65;8.70;;;13.90;99.90;;;;;;4970056;28;20176;-79
2021/06/08 00:21:25;;;;;;;12.13;8.25;;;13.80;99.90;;;;;;4985951;28;20535;-79
2021/06/08 00:23:50;;;;;;;12.15;7.55;;;13.80;99.90;;;;;;4985565;28;20189;-79
2021/06/08 00:26:16;;;;;;;10.70;7.03;;;13.70;99.90;;;;;;4987923;28;20201;-80
2021/06/08 00:28:41;;;;;;;12.50;8.40;;;13.70;99.90;;;;;;4986516;28;20180;-79
2021/06/08 00:31:07;;;;;;;11.57;7.35;;;13.70;99.90;;;;;;4986921;28;20181;-79
2021/06/08 00:33:33;;;;;;;13.68;7.45;;;13.70;99.90;;;;;;4986271;28;20189;-80
2021/06/08 00:35:58;;;;;;;15.07;8.80;;;13.70;99.90;;;;;;4986813;28;20208;-79
2021/06/08 00:38:24;;;;;;;14.02;8.57;;;13.70;99.90;;;;;;4968600;28;20216;-80
2021/06/08 00:40:50;;;;;;;12.20;7.78;;;13.80;99.90;;;;;;4968704;28;20255;-80
2021/06/08 00:43:15;;;;;;;12.43;8.35;;;13.80;99.90;;;;;;4968846;28;20188;-79
2021/06/08 00:45:41;;;;;;;13.98;9.98;;;13.80;99.90;;;;;;4987446;28;20208;-79
2021/06/08 00:48:07;;;;;;;13.07;8.15;;;13.80;99.90;;;;;;4969636;28;20207;-79
2021/06/08 00:50:34;;;;;;;10.93;8.07;;;13.90;99.90;;;;;;4986127;28;20187;-78
2021/06/08 00:52:59;;;;;;;12.52;7.93;;;13.90;99.90;;;;;;4986968;28;20188;-80
2021/06/08 00:55:25;;;;;;;12.73;9.35;;;13.90;99.90;;;;;;4985752;28;20205;-79
2021/06/08 00:57:51;;;;;;;13.50;9.00;;;14.00;99.90;;;;;;4984441;28;20185;-78
2021/06/08 01:00:19;;;;;;;13.50;8.98;;;14.00;99.90;;;;;;4985358;28;20192;-79
2021/06/08 01:02:44;;;;;;;12.90;8.68;;;14.10;99.90;;;;;;4966509;28;20890;-79
2021/06/08 01:05:11;;;;;;;13.00;8.98;;;14.20;99.90;;;;;;4986397;28;20283;-78
2021/06/08 01:07:37;;;;;;;11.00;8.05;;;14.20;99.90;;;;;;4987133;28;20208;-79
2021/06/08 01:10:05;;;;;;;12.18;8.50;;;14.20;99.90;;;;;;4985619;28;20187;-79
2021/06/08 01:12:31;;;;;;;11.98;8.55;;;14.30;99.90;;;;;;4985349;28;20538;-78
2021/06/08 01:14:56;;;;;;;15.25;10.75;;;14.40;99.90;;;;;;4986698;28;20204;-80
2021/06/08 01:17:22;;;;;;;14.45;10.18;;;14.50;99.90;;;;;;4986084;28;20181;-79
2021/06/08 01:19:48;;;;;;;17.60;11.05;;;14.50;99.90;;;;;;4985876;28;20195;-80
2021/06/08 01:22:15;;;;;;;15.30;10.23;;;14.60;99.90;;;;;;4985488;28;20216;-79
2021/06/08 01:24:43;;;;;;;14.20;9.93;;;14.60;99.90;;;;;;4986864;28;20264;-80
2021/06/08 01:27:09;;;;;;;15.05;10.88;;;14.60;99.90;;;;;;4985188;28;20188;-80
2021/06/08 01:29:36;;;;;;;15.73;10.48;;;14.60;99.90;;;;;;4984043;28;20185;-79
2021/06/08 01:32:04;;;;;;;12.95;9.20;;;14.50;99.90;;;;;;4966144;28;20181;-79
2021/06/08 01:34:30;;;;;;;16.10;10.98;;;14.40;99.90;;;;;;4967906;28;20275;-79
2021/06/08 01:36:56;;;;;;;14.70;9.73;;;14.40;99.90;;;;;;4984799;28;20189;-80
2021/06/08 01:39:22;;;;;;;13.95;9.88;;;14.50;99.90;;;;;;4969150;28;20231;-79
2021/06/08 01:41:49;;;;;;;14.77;10.30;;;14.50;99.90;;;;;;4985189;28;20185;-79
2021/06/08 01:44:15;;;;;;;17.65;11.27;;;14.50;99.90;;;;;;4985314;28;20219;-79
2021/06/08 01:46:41;;;;;;;16.33;10.88;;;14.50;99.90;;;;;;4965958;28;20207;-79
2021/06/08 01:49:06;;;;;;;16.45;10.07;;;14.50;99.90;;;;;;4967688;28;20180;-80
2021/06/08 01:51:48;;;;;;;16.33;11.20;;;14.50;99.90;;;;;;4984851;28;20263;-79
2021/06/08 01:54:28;;;;;;;17.23;11.10;;;14.60;99.90;;;;;;4982359;28;20742;-79
2021/06/08 01:57:07;;;;;;;15.52;10.23;;;14.50;99.90;;;;;;4968573;28;20185;-79
2021/06/08 01:59:56;;;;;;;18.58;11.65;;;14.60;99.90;;;;;;4985180;28;20193;-80
2021/06/08 02:02:26;;;;;;;15.07;10.48;;;14.60;99.90;;;;;;4985265;28;20207;-80
2021/06/08 02:05:03;;;;;;;16.92;11.38;;;14.60;99.90;;;;;;4965093;28;20205;-78
2021/06/08 02:08:08;;;;;;;16.77;10.98;;;14.70;99.90;;;;;;4984968;28;20184;-80
2021/06/08 02:10:41;;;;;;;15.35;10.60;;;14.60;99.90;;;;;;4984304;28;20184;-79
2021/06/08 02:13:13;;;;;;;17.35;9.90;;;14.60;99.90;;;;;;4975848;28;20188;-80
2021/06/08 02:15:48;;;;;;;15.80;10.02;;;14.50;99.90;;;;;;4984782;28;20196;-79
2021/06/08 02:18:16;;;;;;;18.92;11.00;;;14.50;99.90;;;;;;4984153;28;20638;-80
2021/06/08 02:20:42;;;;;;;18.52;11.52;;;14.50;99.90;;;;;;4985496;28;20580;-79
2021/06/08 02:23:11;;;;;;;15.60;10.88;;;14.50;99.90;;;;;;4965470;28;20195;-79
2021/06/08 02:25:37;;;;;;;16.38;10.68;;;14.50;99.90;;;;;;4984842;28;20216;-79
2021/06/08 02:28:10;;;;;;;16.90;11.02;;;14.50;99.90;;;;;;4985705;28;20204;-79
2021/06/08 02:30:36;;;;;;;15.30;9.55;;;14.50;99.90;;;;;;4966968;28;20189;-80
2021/06/08 02:33:04;;;;;;;15.50;9.90;;;14.50;99.90;;;;;;4985691;28;20191;-80
2021/06/08 02:35:30;;;;;;;18.55;11.55;;;14.50;99.90;;;;;;4980931;28;20200;-79
2021/06/08 02:37:57;;;;;;;16.45;10.35;;;14.50;99.90;;;;;;4983383;28;20255;-79
2021/06/08 02:40:23;;;;;;;16.95;10.60;;;14.50;99.90;;;;;;4984404;28;20595;-80
2021/06/08 02:42:49;;;;;;;14.48;9.50;;;14.50;99.90;;;;;;4983254;28;20211;-79
2021/06/08 02:45:15;;;;;;;15.07;10.20;;;14.60;99.90;;;;;;4983072;28;20288;-80
2021/06/08 02:47:43;;;;;;;17.58;11.65;;;14.60;99.90;;;;;;4979742;28;20658;-78
2021/06/08 02:50:10;;;;;;;16.60;11.35;;;14.60;99.90;;;;;;4981772;28;20204;-79
2021/06/08 02:52:36;;;;;;;15.70;10.10;;;14.70;99.90;;;;;;4983073;28;20185;-79
2021/06/08 02:55:04;;;;;;;14.50;9.48;;;14.70;99.90;;;;;;4982992;28;20273;-79
2021/06/08 02:57:32;;;;;;;12.90;9.13;;;14.70;99.90;;;;;;4983465;28;20714;-79
2021/06/08 03:00:03;;;;;;;16.10;10.20;;;14.70;99.90;;;;;;4979981;28;20224;-79
2021/06/08 03:02:31;;;;;;;15.38;10.68;;;14.70;99.90;;;;;;4984858;28;20193;-79
2021/06/08 03:05:08;;;;;;;15.05;10.05;;;14.70;99.90;;;;;;4985375;28;20223;-79
2021/06/08 03:07:37;;;;;;;16.75;10.63;;;14.80;99.90;;;;;;4983029;28;20199;-79
2021/06/08 03:10:06;;;;;;;13.50;9.32;;;14.70;99.90;;;;;;4985537;28;20223;-79
2021/06/08 03:12:36;;;;;;;15.88;10.63;;;14.80;99.90;;;;;;4982276;28;20200;-79
2021/06/08 03:15:05;;;;;;;14.35;9.90;;;14.80;99.90;;;;;;4984052;28;20279;-79
2021/06/08 03:17:32;;;;;;;16.52;10.20;;;14.80;99.90;;;;;;4982921;28;20176;-79
2021/06/08 03:20:11;;;;;;;13.52;10.02;;;14.80;99.90;;;;;;4986067;28;20211;-80
2021/06/08 03:22:39;;;;;;;15.80;9.93;;;14.80;99.90;;;;;;4975694;28;20192;-79
2021/06/08 03:25:05;;;;;;;15.60;10.05;;;14.80;99.90;;;;;;4987256;28;20302;-77
2021/06/08 03:27:32;;;;;;;16.55;9.70;;;14.80;99.90;;;;;;4987475;28;20188;-79
2021/06/08 03:29:58;;;;;;;15.52;10.18;;;14.80;99.90;;;;;;4984147;28;20188;-79
2021/06/08 03:32:25;;;;;;;16.85;10.02;;;14.90;99.90;;;;;;4984967;28;20192;-80
2021/06/08 03:34:51;;;;;;;14.32;10.00;;;14.90;99.90;;;;;;4986494;28;20205;-79
2021/06/08 03:37:19;;;;;;;17.48;10.20;;;14.90;99.90;;;;;;4983241;28;20180;-79
2021/06/08 03:39:46;;;;;;;14.07;10.15;;;14.90;99.90;;;;;;4984919;28;20555;-80
2021/06/08 03:42:12;;;;;;;15.25;9.98;;;15.00;99.90;;;;;;4978640;28;20187;-80
2021/06/08 03:44:38;;;;;;;15.68;11.38;;;15.10;99.90;;;;;;4971501;28;20214;-78
2021/06/08 03:47:04;;;;;;;18.60;12.35;;;15.20;99.90;;;;;;4971724;28;20555;-80
2021/06/08 03:49:32;;;;;;;14.75;10.23;;;15.40;99.90;;;;;;4981760;28;20372;-79
2021/06/08 03:51:58;;;;;;;16.33;10.98;;;15.40;99.90;;;;;;4983864;28;20184;-79
2021/06/08 03:54:23;;;;;;;16.08;10.52;;;15.40;99.90;;;;;;4962644;28;20263;-79
2021/06/08 03:56:52;;;;;;;14.40;9.70;;;15.50;99.90;;;;;;4965591;28;20675;-79
2021/06/08 03:59:21;;;;;;;15.85;10.02;;;15.60;99.90;;;;;;4984713;28;20191;-79
2021/06/08 04:01:49;;;;;;;15.18;10.75;;;15.60;99.90;;;;;;4983656;28;20192;-80
2021/06/08 04:04:15;;;;;;;17.77;11.00;;;15.70;99.90;;;;;;4963150;28;20185;-82
2021/06/08 04:06:41;;;;;;;14.77;10.20;;;15.70;99.90;;;;;;4968649;28;20215;-80
2021/06/08 04:09:08;;;;;;;14.50;10.35;;;15.80;99.90;;;;;;4961877;28;20412;-80
2021/06/08 04:11:35;;;;;;;13.85;10.18;;;15.90;99.90;;;;;;4960264;28;20193;-80
2021/06/08 04:14:01;;;;;;;15.70;11.07;;;16.00;99.90;;;;;;4957973;28;20179;-79
2021/06/08 04:16:27;;;;;;;14.43;9.77;;;16.00;99.90;;;;;;4976293;28;20201;-81
2021/06/08 04:18:53;;;;;;;23.40;10.65;;;16.00;99.90;;;;;;4968835;28;20529;-79
2021/06/08 04:21:24;;;;;;;17.40;10.75;;;16.00;99.90;;;;;;4981224;28;20190;-79
2021/06/08 04:24:00;;;;;;;13.68;9.68;;;16.00;99.90;;;;;;4987794;28;20181;-79
2021/06/08 04:26:26;;;;;;;15.75;11.07;;;16.20;99.90;;;;;;4973617;28;20712;-79
2021/06/08 04:28:52;;;;;;;16.15;10.65;;;16.10;99.90;;;;;;4975872;28;20184;-79
2021/06/08 04:31:19;;;;;;;13.98;9.68;;;16.20;99.90;;;;;;4985303;28;20211;-80
2021/06/08 04:33:45;;;;;;;13.90;9.88;;;16.20;99.90;;;;;;4978839;28;20530;-78
2021/06/08 04:36:13;;;;;;;14.23;10.05;;;16.30;99.90;;;;;;4959269;28;20302;-78
2021/06/08 04:38:39;;;;;;;15.50;10.65;;;16.40;99.90;;;;;;4962721;28;20214;-80
2021/06/08 04:41:05;;;;;;;13.73;9.85;;;16.40;99.90;;;;;;4963449;28;20188;-80
2021/06/08 04:43:31;;;;;;;14.95;10.68;;;16.50;99.90;;;;;;4978227;28;20189;-80
2021/06/08 04:46:02;;;;;;;14.00;10.57;;;16.50;99.90;;;;;;4980849;28;20211;-79
2021/06/08 04:48:27;;;;;;;12.73;9.77;;;16.60;99.90;;;;;;4979942;28;20187;-80
2021/06/08 04:50:53;;;;;;;14.32;11.23;;;16.60;99.90;;;;;;4986042;28;20177;-79
2021/06/08 04:53:19;;;;;;;13.43;10.02;;;16.60;99.90;;;;;;4976982;28;20188;-80
2021/06/08 04:55:45;;;;;;;15.00;10.05;;;16.60;99.90;;;;;;4964743;28;20271;-78
2021/06/08 04:58:11;;;;;;;14.07;10.57;;;16.60;99.90;;;;;;4980983;28;21015;-80
2021/06/08 05:00:39;;;;;;;16.63;10.25;;;16.70;99.90;;;;;;4971836;28;20741;-79
2021/06/08 05:03:13;;;;;;;14.57;9.90;;;16.70;99.90;;;;;;4978666;28;20191;-79
2021/06/08 05:05:42;;;;;;;14.25;10.10;;;16.70;99.90;;;;;;4977497;28;20286;-79
2021/06/08 05:08:30;;;;;;;13.93;10.20;;;16.70;99.90;;;;;;4960473;28;20184;-80
2021/06/08 05:11:13;;;;;;;13.27;8.93;;;16.70;99.90;;;;;;4986564;28;20651;-79
2021/06/08 05:13:42;;;;;;;13.75;10.13;;;16.90;99.90;;;;;;4965745;28;20188;-81
2021/06/08 05:16:08;;;;;;;12.68;9.43;;;16.90;99.90;;;;;;4983189;28;20208;-79
2021/06/08 05:18:36;;;;;;;13.05;9.15;;;17.00;99.90;;;;;;4966225;28;20205;-79
2021/06/08 05:21:05;;;;;;;13.63;8.18;;;17.10;99.90;;;;;;4988370;28;20255;-80
2021/06/08 05:23:33;;;;;;;11.32;9.38;;;17.10;99.90;;;;;;4965177;28;20185;-81
2021/06/08 05:25:58;;;;;;;11.40;8.48;;;17.10;99.90;;;;;;4977810;28;20228;-80
2021/06/08 05:28:25;;;;;;;16.33;10.10;;;17.10;99.90;;;;;;4979780;28;20181;-80
2021/06/08 05:30:51;;;;;;;10.93;7.88;;;17.10;99.90;;;;;;4984903;28;20180;-77
2021/06/08 05:33:24;;;;;;;10.50;8.60;;;17.00;99.90;;;;;;4986339;28;20271;-79
2021/06/08 05:35:54;;;;;;;11.85;9.05;;;17.10;99.90;;;;;;4983984;28;20212;-80
2021/06/08 05:38:32;;;;;;;13.23;9.32;;;17.10;99.90;;;;;;4978027;28;20216;-81
2021/06/08 05:41:02;;;;;;;15.25;9.32;;;17.20;99.90;;;;;;4960383;28;20185;-80
2021/06/08 05:43:27;;;;;;;14.45;9.55;;;17.20;99.90;;;;;;4957120;28;20192;-79
2021/06/08 05:45:53;;;;;;;15.40;9.35;;;17.30;99.90;;;;;;4960511;28;20637;-80
2021/06/08 05:48:21;;;;;;;11.73;9.10;;;17.20;99.90;;;;;;4976581;28;20195;-80
2021/06/08 05:50:46;;;;;;;12.77;9.63;;;17.30;99.90;;;;;;4981570;28;20184;-79
2021/06/08 05:53:15;;;;;;;13.48;10.27;;;17.30;99.90;;;;;;4966662;28;20578;-79
2021/06/08 05:55:44;;;;;;;13.43;8.95;;;17.40;99.90;;;;;;4983399;28;20505;-80
2021/06/08 05:58:11;;;;;;;14.98;9.27;;;17.50;99.90;;;;;;4960100;28;20222;-78
2021/06/08 06:00:37;;;;;;;14.15;10.27;;;17.50;99.90;;;;;;4963744;28;20216;-78
2021/06/08 06:03:03;;;;;;;14.68;9.73;;;17.50;99.90;;;;;;4961008;28;20189;-80
2021/06/08 06:05:29;;;;;;;12.70;9.60;;;17.50;99.90;;;;;;4962810;28;20216;-79
2021/06/08 06:07:55;;;;;;;13.07;9.85;;;17.50;99.90;;;;;;4993751;28;20187;-80
2021/06/08 06:10:22;;;;;;;13.98;9.43;;;17.50;99.90;;;;;;4989211;28;20188;-80
2021/06/08 06:12:50;;;;;;;12.32;8.82;;;17.60;99.90;;;;;;4984839;28;20184;-79
2021/06/08 06:15:16;;;;;;;14.38;9.00;;;17.60;99.90;;;;;;4990764;28;20200;-79
2021/06/08 06:17:43;;;;;;;13.43;9.55;;;17.70;99.90;;;;;;4964197;28;20248;-80
2021/06/08 06:20:14;;;;;;;14.68;10.52;;;17.70;99.90;;;;;;4987472;28;20222;-79
2021/06/08 06:22:41;;;;;;;16.75;10.65;;;17.80;99.90;;;;;;4965672;28;20277;-80
2021/06/08 06:25:11;;;;;;;14.82;10.48;;;17.90;99.90;;;;;;4981657;28;20324;-80
2021/06/08 06:27:38;;;;;;;15.50;10.23;;;17.80;99.90;;;;;;4989394;28;20212;-80
2021/06/08 06:30:06;;;;;;;12.43;8.38;;;17.90;99.90;;;;;;4990967;28;20180;-81
2021/06/08 06:32:33;;;;;;;13.80;9.85;;;18.00;99.90;;;;;;4970538;28;20200;-79
2021/06/08 06:34:59;;;;;;;13.13;9.23;;;18.10;99.90;;;;;;4971268;28;20284;-82
2021/06/08 06:37:25;;;;;;;12.35;8.73;;;18.10;99.90;;;;;;4987464;28;20917;-81
2021/06/08 06:39:52;;;;;;;12.32;9.15;;;18.10;99.90;;;;;;4987660;28;20662;-80
2021/06/08 06:42:22;;;;;;;14.75;9.38;;;18.30;99.90;;;;;;4973091;28;20682;-81
2021/06/08 06:44:48;;;;;;;12.50;8.75;;;18.30;99.90;;;;;;4988943;28;20208;-81
2021/06/08 06:47:16;;;;;;;14.88;9.48;;;18.40;99.90;;;;;;4972867;28;20181;-80
2021/06/08 06:49:42;;;;;;;13.88;10.23;;;18.40;99.90;;;;;;4987346;28;20204;-81
2021/06/08 06:52:09;;;;;;;13.60;9.43;;;18.40;99.90;;;;;;4983663;28;20601;-80
2021/06/08 06:54:35;;;;;;;14.43;9.77;;;18.40;99.90;;;;;;4982061;28;20299;-80
2021/06/08 06:57:01;;;;;;;11.82;9.35;;;18.40;99.90;;;;;;4984630;28;20215;-79
2021/06/08 06:59:27;;;;;;;12.50;8.77;;;18.40;99.90;;;;;;4972586;28;20228;-78
2021/06/08 07:01:53;;;;;;;13.45;10.30;;;18.30;99.90;;;;;;4963601;28;20188;-79
2021/06/08 07:04:23;;;;;;;14.32;9.05;;;18.30;99.90;;;;;;4961268;28;20244;-79
2021/06/08 07:06:50;;;;;;;14.55;9.43;;;18.30;99.90;;;;;;4969444;28;20195;-79
2021/06/08 07:09:23;;;;;;;15.55;10.10;;;18.30;99.90;;;;;;4984104;28;20242;-79
2021/06/08 07:11:50;;;;;;;15.20;10.07;;;18.30;99.90;;;;;;4961267;28;20215;-78
2021/06/08 07:14:16;;;;;;;19.40;11.02;;;18.20;99.90;;;;;;4991151;28;20181;-77
2021/06/08 07:16:42;;;;;;;13.50;8.98;;;18.20;99.90;;;;;;4975560;28;20251;-78
2021/06/08 07:19:08;;;;;;;15.68;9.90;;;18.30;99.90;;;;;;4983429;28;20177;-78
2021/06/08 07:21:34;;;;;;;12.10;8.77;;;18.30;99.90;;;;;;4980772;28;20215;-78
2021/06/08 07:24:00;;;;;;;16.55;9.48;;;18.40;99.90;;;;;;4989478;28;20599;-78
2021/06/08 07:26:27;;;;;;;13.60;10.13;;;18.50;99.90;;;;;;4973871;28;20217;-79
2021/06/08 07:28:56;;;;;;;11.95;8.23;;;18.40;99.90;;;;;;4983589;28;20184;-77
2021/06/08 07:31:54;;;;;;;13.85;9.45;;;18.50;99.90;;;;;;4987178;28;20180;-78
2021/06/08 07:35:00;;;;;;;12.95;9.27;;;18.70;99.90;;;;;;4985017;28;20211;-78
2021/06/08 07:37:28;;;;;;;12.48;8.45;;;18.80;99.90;;;;;;4975202;28;20197;-78
2021/06/08 07:40:03;;;;;;;12.27;9.02;;;18.90;99.90;;;;;;4980879;28;20188;-78
2021/06/08 07:42:51;;;;;;;11.88;8.80;;;19.00;99.90;;;;;;4982719;28;20191;-78
2021/06/08 07:45:24;;;;;;;12.18;8.65;;;19.10;99.90;;;;;;4979179;28;20277;-78
2021/06/08 07:47:53;;;;;;;13.45;9.55;;;19.10;99.90;;;;;;4965496;28;20186;-78
2021/06/08 07:50:20;;;;;;;13.25;9.82;;;18.90;99.90;;;;;;4967197;28;20208;-78
2021/06/08 07:52:50;;;;;;;13.75;8.48;;;18.80;99.90;;;;;;4982356;28;20653;-78
2021/06/08 07:55:16;;;;;;;16.40;9.13;;;18.90;99.90;;;;;;4976360;28;20211;-78
2021/06/08 07:57:45;;;;;;;13.32;9.13;;;18.90;99.90;;;;;;4982530;28;20716;-78
2021/06/08 08:00:13;;;;;;;14.68;9.68;;;19.00;99.90;;;;;;4980668;28;20196;-78
2021/06/08 08:02:39;;;;;;;13.10;9.52;;;19.10;99.90;;;;;;4964842;28;20181;-77
2021/06/08 08:05:09;;;;;;;15.00;9.05;;;19.40;99.90;;;;;;4956036;28;20227;-79
2021/06/08 08:07:36;;;;;;;16.02;9.27;;;19.40;99.90;;;;;;4987413;28;20188;-79
2021/06/08 08:10:02;;;;;;;13.65;9.55;;;19.40;99.90;;;;;;4985336;28;20676;-78
2021/06/08 08:12:27;;;;;;;12.93;9.63;;;19.20;99.90;;;;;;4968372;28;20193;-78
2021/06/08 08:14:54;;;;;;;14.63;9.43;;;19.10;99.90;;;;;;4986540;28;20227;-77
2021/06/08 08:17:24;;;;;;;14.75;10.40;;;19.10;99.90;;;;;;4964748;28;20189;-79
2021/06/08 08:19:51;;;;;;;14.50;9.90;;;19.00;99.90;;;;;;4984572;28;20184;-79
2021/06/08 08:22:17;;;;;;;15.25;9.98;;;19.10;99.90;;;;;;4984915;28;20188;-77
2021/06/08 08:24:44;;;;;;;14.35;9.80;;;19.30;99.90;;;;;;4987505;28;20219;-78
2021/06/08 08:27:10;;;;;;;14.27;10.05;;;19.40;99.90;;;;;;4984424;28;20630;-78
2021/06/08 08:29:37;;;;;;;13.30;9.95;;;19.50;99.90;;;;;;4989309;28;20188;-78
2021/06/08 08:32:03;;;;;;;16.92;9.57;;;19.50;99.90;;;;;;4971219;28;20196;-77
2021/06/08 08:34:29;;;;;;;15.55;10.23;;;19.60;99.90;;;;;;4980768;28;20191;-78
2021/06/08 08:36:56;;;;;;;14.65;10.25;;;19.70;99.90;;;;;;4989391;28;20255;-79
2021/06/08 08:39:22;;;;;;;16.60;9.52;;;19.60;99.90;;;;;;4987505;28;20184;-79
2021/06/08 08:41:47;;;;;;;13.02;9.80;;;19.70;99.90;;;;;;4968303;28;20242;-79
2021/06/08 08:44:13;;;;;;;13.00;9.13;;;19.80;99.90;;;;;;4987348;28;20198;-79
2021/06/08 08:46:39;;;;;;;13.43;10.45;;;20.00;99.90;;;;;;4988666;28;20500;-79
2021/06/08 08:49:05;;;;;;;15.23;10.55;;;20.20;99.90;;;;;;4959833;28;20557;-79
2021/06/08 08:51:32;;;;;;;15.88;9.95;;;20.30;99.90;;;;;;4966773;28;20181;-78
2021/06/08 08:54:00;;;;;;;17.38;10.88;;;20.30;99.90;;;;;;4982100;28;20177;-79
2021/06/08 08:56:34;;;;;;;16.02;9.98;;;20.40;99.90;;;;;;4959706;28;20735;-79
2021/06/08 08:59:08;;;;;;;13.25;9.32;;;20.20;99.90;;;;;;4982041;28;20627;-79
2021/06/08 09:01:36;;;;;;;14.27;9.63;;;20.20;99.90;;;;;;4961981;28;20192;-78
2021/06/08 09:04:04;;;;;;;13.98;10.13;;;20.30;99.90;;;;;;4980647;28;20199;-79
2021/06/08 09:06:29;;;;;;;14.27;9.60;;;20.40;99.90;;;;;;4979278;28;20252;-79
2021/06/08 09:08:56;;;;;;;13.40;9.90;;;20.30;99.90;;;;;;4982203;28;20208;-77
2021/06/08 09:11:21;;;;;;;15.10;10.85;;;20.40;99.90;;;;;;4979504;28;20177;-79
2021/06/08 09:13:47;;;;;;;14.55;9.38;;;20.50;99.90;;;;;;4978188;28;20185;-79
2021/06/08 09:16:16;;;;;;;14.95;9.82;;;20.60;99.90;;;;;;4957780;28;20212;-78
2021/06/08 09:18:43;;;;;;;14.32;9.90;;;20.70;99.90;;;;;;4977835;28;20222;-78
2021/06/08 09:21:21;;;;;;;14.57;9.57;;;20.90;99.90;;;;;;4976757;28;20422;-78
2021/06/08 09:23:47;;;;;;;16.27;10.82;;;20.90;99.90;;;;;;4979187;28;20446;-78
2021/06/08 09:26:15;;;;;;;12.20;8.77;;;21.10;99.90;;;;;;4969838;28;20640;-77
2021/06/08 09:28:41;;;;;;;16.80;10.18;;;21.20;99.90;;;;;;4982568;28;20177;-78
2021/06/08 09:31:16;;;;;;;13.88;9.82;;;21.00;99.90;;;;;;4981430;28;20181;-78
2021/06/08 09:33:45;;;;;;;13.82;10.18;;;21.00;99.90;;;;;;4977799;28;20181;-78
2021/06/08 09:36:17;;;;;;;13.90;10.05;;;21.20;99.90;;;;;;4955763;28;20225;-78
2021/06/08 09:38:53;;;;;;;15.00;9.75;;;21.70;99.90;;;;;;4984282;28;20187;-79
2021/06/08 09:41:41;;;;;;;14.85;10.60;;;21.90;99.90;;;;;;5119216;27;20301;-78
2021/06/08 09:44:15;;;;;;;14.07;10.05;;;22.10;99.90;;;;;;5108763;28;20179;-78
2021/06/08 09:46:45;;;;;;;15.75;10.93;;;22.00;99.90;;;;;;5110111;28;20182;-77
2021/06/08 09:49:48;;;;;;;14.63;10.02;;;22.20;99.90;;;;;;5110293;28;20188;-77
2021/06/08 09:52:17;;;;;;;14.80;9.77;;;22.20;99.90;;;;;;5107420;28;20218;-76
2021/06/08 09:58:40;;;;;;;13.85;9.80;;;22.30;99.90;;;;;;5110874;28;20184;-75
2021/06/08 10:01:09;;;;;;;14.82;10.15;;;22.70;99.90;;;;;;5108546;28;20687;-77
2021/06/08 10:03:44;;;;;;;13.55;9.57;;;22.90;99.90;;;;;;5109612;28;20212;-75
2021/06/08 10:06:31;;;;;;;14.45;10.27;;;23.10;99.90;;;;;;5110238;28;20187;-75
2021/06/08 10:09:10;;;;;;;14.07;10.52;;;23.20;99.90;;;;;;5097012;28;20219;-75
2021/06/08 10:11:37;;;;;;;14.30;10.65;;;23.10;99.90;;;;;;5108648;28;20615;-75
2021/06/08 10:14:12;;;;;;;14.18;9.73;;;23.20;99.90;;;;;;5109863;28;20176;-76
2021/06/08 10:16:38;;;;;;;15.23;9.90;;;23.20;99.90;;;;;;5110228;28;20172;-76
2021/06/08 10:19:04;;;;;;;13.05;9.70;;;22.90;99.90;;;;;;5100436;28;20650;-76
2021/06/08 10:21:48;;;;;;;14.45;9.82;;;22.80;99.90;;;;;;5101245;28;20191;-75
2021/06/08 10:24:19;;;;;;;15.25;10.50;;;23.10;99.90;;;;;;5100220;28;20189;-75
2021/06/08 10:26:51;;;;;;;13.52;9.35;;;23.10;99.90;;;;;;5101009;28;20418;-76
2021/06/08 10:29:23;;;;;;;13.38;9.73;;;23.10;99.90;;;;;;5100612;28;20951;-76
2021/06/08 10:31:49;;;;;;;14.73;10.43;;;23.30;99.90;;;;;;5105914;28;20176;-77
2021/06/08 10:34:15;;;;;;;16.80;10.40;;;22.80;99.90;;;;;;5109698;28;20703;-74
2021/06/08 10:36:44;;;;;;;15.10;10.35;;;22.80;99.90;;;;;;5110305;28;20219;-75
2021/06/08 10:39:22;;;;;;;15.27;10.25;;;23.10;99.90;;;;;;5109606;28;20283;-76
2021/06/08 10:41:48;;;;;;;15.13;10.60;;;23.40;99.90;;;;;;5110174;28;20180;-76
2021/06/08 10:44:28;;;;;;;15.77;11.07;;;23.00;99.90;;;;;;5109293;28;20176;-75
2021/06/08 10:47:07;;;;;;;17.00;10.80;;;22.30;99.90;;;;;;5106300;28;20274;-76
2021/06/08 10:49:39;;;;;;;14.70;10.45;;;22.20;99.90;;;;;;5108573;28;20252;-76
2021/06/08 10:52:14;;;;;;;13.60;9.88;;;22.40;99.90;;;;;;5100536;28;20173;-76
2021/06/08 10:54:43;;;;;;;13.80;9.15;;;22.90;99.90;;;;;;5095712;28;20176;-75
2021/06/08 10:57:17;;;;;;;12.88;9.60;;;23.40;99.90;;;;;;5095817;28;20525;-76
2021/06/08 10:59:48;;;;;;;12.30;8.55;;;23.80;99.90;;;;;;5095786;28;20567;-76
2021/06/08 11:02:47;;;;;;;14.45;10.25;;;23.60;99.90;;;;;;5096262;28;20154;-75
2021/06/08 11:05:15;;;;;;;16.80;9.55;;;23.40;99.90;;;;;;5095550;28;20177;-74
2021/06/08 11:07:44;;;;;;;13.35;9.20;;;23.60;99.90;;;;;;5094816;28;20181;-75
2021/06/08 11:10:55;;;;;;;12.23;9.27;;;23.60;99.90;;;;;;5095627;28;20193;-73
2021/06/08 11:16:58;;;;;;;11.65;8.68;;;24.00;99.90;;;;;;5089313;28;20530;-75
2021/06/08 11:19:50;;;;;;;13.48;9.73;;;24.20;99.90;;;;;;5094944;28;20200;-77
2021/06/08 11:22:21;;;;;;;13.65;9.45;;;24.30;99.90;;;;;;5091626;28;20175;-75
2021/06/08 11:24:51;;;;;;;13.45;9.45;;;24.40;99.90;;;;;;5090683;28;20164;-75
2021/06/08 11:27:18;;;;;;;11.00;8.13;;;24.30;99.90;;;;;;5088301;28;20325;-76
2021/06/08 11:29:55;;;;;;;13.43;9.75;;;24.10;99.90;;;;;;5086196;28;20253;-75
2021/06/08 11:32:43;;;;;;;12.38;8.88;;;24.10;99.90;;;;;;5086980;28;20185;-74
2021/06/08 11:35:19;;;;;;;11.55;8.60;;;24.00;99.90;;;;;;5086682;28;20192;-75
2021/06/08 11:38:00;;;;;;;13.50;9.38;;;24.30;99.90;;;;;;5085796;28;20542;-75
2021/06/08 11:40:42;;;;;;;12.18;7.90;;;24.40;99.90;;;;;;5087090;28;20208;-74
2021/06/08 12:18:31;;;;;;;10.80;8.25;;;25.80;99.90;;;;;;5053366;22;20240;-73
2021/06/08 12:20:57;;;;;;;10.75;8.15;;;25.80;99.90;;;;;;4963482;28;20569;-74
2021/06/08 12:23:43;;;;;;;9.38;7.35;;;25.50;99.90;;;;;;4963634;28;20181;-73
2021/06/08 12:26:11;;;;;;;10.32;7.50;;;25.40;99.90;;;;;;4963206;28;21015;-75
2021/06/08 12:28:38;;;;;;;9.68;7.53;;;25.50;99.90;;;;;;4963712;28;20209;-74
2021/06/08 12:31:13;;;;;;;15.65;8.20;;;25.40;99.90;;;;;;4963982;28;20556;-74
2021/06/08 12:33:39;;;;;;;9.88;7.38;;;25.50;99.90;;;;;;4963344;28;20259;-72
2021/06/08 12:36:05;;;;;;;10.73;8.63;;;25.80;99.90;;;;;;4963495;28;20279;-73
2021/06/08 12:38:31;;;;;;;12.02;8.15;;;26.00;99.90;;;;;;4963772;28;20209;-74
2021/06/08 12:41:09;;;;;;;10.40;7.82;;;26.30;99.90;;;;;;4963682;28;20292;-74
2021/06/08 12:43:55;;;;;;;11.00;8.73;;;25.80;99.90;;;;;;4963513;28;20184;-72
2021/06/08 12:46:29;;;;;;;10.60;7.97;;;25.80;99.90;;;;;;4963873;28;20666;-72
2021/06/08 12:49:11;;;;;;;9.93;7.88;;;25.70;99.90;;;;;;4963498;28;20197;-73
2021/06/08 12:51:42;;;;;;;8.55;7.18;;;25.90;99.90;;;;;;4962108;28;20637;-72
2021/06/08 12:54:40;;;;;;;10.20;8.95;;;26.10;99.90;;;;;;4963184;28;20189;-73
2021/06/08 12:57:32;;;;;;;11.18;8.30;;;26.30;99.90;;;;;;4963471;28;20553;-75
2021/06/08 13:00:15;;;;;;;10.68;8.10;;;26.40;99.90;;;;;;4961910;28;20281;-71
2021/06/08 13:02:41;;;;;;;8.48;7.03;;;26.30;99.90;;;;;;4961559;28;20292;-71
2021/06/08 13:05:09;;;;;;;8.55;7.20;;;26.50;99.90;;;;;;4962994;28;20212;-73
2021/06/08 13:07:38;;;;;;;11.15;8.35;;;26.40;99.90;;;;;;4962863;28;20184;-73
2021/06/08 13:10:12;;;;;;;9.05;7.45;;;26.30;99.90;;;;;;4962095;28;20205;-72
2021/06/08 13:12:39;;;;;;;10.18;8.60;;;26.20;99.90;;;;;;4963828;28;20194;-73
2021/06/08 13:15:06;;;;;;;8.90;7.50;;;25.90;99.90;;;;;;4961274;28;20185;-71
2021/06/08 13:17:33;;;;;;;9.88;7.57;;;26.00;99.90;;;;;;4963540;28;20208;-73
2021/06/08 13:19:59;;;;;;;7.53;6.72;;;26.20;99.90;;;;;;4970099;28;20556;-73
2021/06/08 13:22:30;;;;;;;8.10;7.00;;;26.50;99.90;;;;;;4968202;28;20177;-72
2021/06/08 13:24:57;;;;;;;8.52;7.25;;;26.60;99.90;;;;;;4967240;28;20260;-73
2021/06/08 13:27:26;;;;;;;9.38;7.45;;;26.90;99.90;;;;;;4969196;28;20264;-72
2021/06/08 13:29:57;;;;;;;8.45;7.50;;;26.80;99.90;;;;;;4963816;28;21761;-74